Algosea — CFN4229 — position and weather

sailwx.info

Track history (hours):
 
Tides and Currents Weather Stations Pressure Air Temp Water Temp Dewpoint Dewpoint Depression Visibility Wind Speed Wind Dir Waves Ship Positions

Algosea

Last reported at 2017-Dec-26 12:10 UTC. Time now 2018-Jan-23 10:12 UTC.
Position N 45°11' W 074°19'.
Warning: this ship's position is 27 days out of date.

Length 144 m; draft 7.2 m.

Type: Ship. MMSI: 316006868.

Date/timePositionNaut miles runAvg speedWind from/ knotsBaromVisibWave heightAir tempDewpointWater temp
2017-Dec-26 12:10N 45°11' W 074°19'210.6
2017-Dec-26 12:00N 45°12' W 074°18'3 5.6
2017-Dec-26 11:29N 45°14' W 074°14'0 0.0
2017-Dec-26 10:59N 45°14' W 074°14'0 0.0
2017-Dec-26 10:29N 45°14' W 074°14'0 0.0
2017-Dec-26 09:59N 45°14' W 074°14'0 0.0
2017-Dec-26 09:29N 45°14' W 074°14'0 0.0
2017-Dec-26 08:59N 45°14' W 074°14'0 0.0
2017-Dec-26 08:29N 45°14' W 074°14'0 0.0
2017-Dec-26 07:59N 45°14' W 074°14'0 0.0
2017-Dec-26 07:29N 45°14' W 074°14'0 0.0
2017-Dec-26 06:59N 45°14' W 074°14'0 0.0
2017-Dec-26 06:29N 45°14' W 074°14'0 0.0
2017-Dec-26 05:53N 45°14' W 074°14'0 0.0
2017-Dec-26 05:17N 45°14' W 074°14'0 0.0
2017-Dec-26 04:59N 45°14' W 074°14'0 0.0
2017-Dec-26 04:29N 45°14' W 074°14'0 0.0
2017-Dec-26 03:53N 45°14' W 074°14'0 0.0
2017-Dec-26 03:29N 45°14' W 074°14'0 0.0
2017-Dec-26 02:59N 45°14' W 074°14'0 0.0
2017-Dec-25 21:53N 45°14' W 074°14'0 0.0
2017-Dec-25 21:26N 45°14' W 074°14'0 0.2
2017-Dec-25 21:00N 45°14' W 074°14'3 5.6
2017-Dec-25 20:30N 45°14' W 074°10'4 8.8
2017-Dec-25 20:00N 45°13' W 074°04'4 8.5
2017-Dec-25 19:30N 45°15' W 073°59'4 7.6
2017-Dec-25 19:01N 45°18' W 073°56'0 0.2
2017-Dec-25 18:31N 45°18' W 073°56'1 1.4
2017-Dec-25 18:01N 45°19' W 073°55'0 0.3
2017-Dec-25 17:30N 45°19' W 073°55'1 1.9
2017-Dec-25 17:00N 45°20' W 073°55'1 1.5
2017-Dec-25 16:30N 45°20' W 073°54'0 0.2
2017-Dec-25 16:00N 45°20' W 073°54'0 0.1
2017-Dec-25 15:30N 45°20' W 073°54'0 0.1
2017-Dec-25 15:00N 45°20' W 073°54'0 0.0
2017-Dec-25 14:30N 45°20' W 073°54'0 0.0
2017-Dec-25 13:59N 45°20' W 073°54'0 0.0
2017-Dec-25 13:29N 45°20' W 073°54'0 0.1
2017-Dec-25 12:59N 45°20' W 073°54'0 0.1
2017-Dec-25 12:29N 45°20' W 073°54'0 0.1
2017-Dec-25 11:59N 45°20' W 073°54'0 0.0
2017-Dec-25 11:29N 45°20' W 073°54'0 0.1
2017-Dec-25 10:59N 45°20' W 073°54'0 0.1
2017-Dec-25 10:29N 45°20' W 073°54'0 0.0
2017-Dec-25 09:59N 45°20' W 073°54'0 0.0
2017-Dec-25 09:29N 45°20' W 073°54'0 0.0
2017-Dec-25 08:59N 45°20' W 073°54'0 0.0
2017-Dec-25 08:29N 45°20' W 073°54'0 0.0
2017-Dec-25 07:59N 45°20' W 073°54'0 0.0
2017-Dec-25 07:29N 45°20' W 073°54'0 0.0
2017-Dec-25 06:59N 45°20' W 073°54'0 0.1
2017-Dec-25 06:29N 45°20' W 073°54'0 0.0
2017-Dec-25 05:59N 45°20' W 073°54'0 0.1
2017-Dec-25 05:29N 45°20' W 073°54'0 0.0
2017-Dec-25 04:59N 45°20' W 073°54'0 0.1
2017-Dec-25 04:29N 45°20' W 073°54'0 0.1
2017-Dec-25 03:59N 45°20' W 073°54'0 0.1
2017-Dec-25 03:29N 45°20' W 073°54'0 0.3
2017-Dec-25 02:59N 45°20' W 073°54'0 0.2
2017-Dec-25 02:29N 45°20' W 073°54'0 0.0
2017-Dec-25 01:59N 45°20' W 073°54'0 0.0
2017-Dec-25 01:29N 45°20' W 073°54'0 0.2
2017-Dec-25 00:59N 45°20' W 073°54'0 0.3
2017-Dec-25 00:29N 45°20' W 073°53'0 0.1
2017-Dec-24 23:59N 45°20' W 073°54'0 0.0
2017-Dec-24 23:29N 45°20' W 073°54'0 0.1
2017-Dec-24 23:00N 45°20' W 073°54'1 2.6
2017-Dec-24 22:31N 45°19' W 073°55'0 0.3
2017-Dec-24 22:01N 45°19' W 073°55'1 1.3
2017-Dec-24 21:31N 45°18' W 073°56'0 0.3
2017-Dec-24 21:00N 45°18' W 073°56'2 3.6
2017-Dec-24 20:30N 45°17' W 073°57'5 9.1
2017-Dec-24 20:01N 45°14' W 074°02'510.1
2017-Dec-24 19:30N 45°14' W 074°09'  
Track history (hours):
 
Tides and Currents Weather Stations Pressure Air Temp Water Temp Dewpoint Dewpoint Depression Visibility Wind Speed Wind Dir Waves Ship Positions

Algosea

Last reported at 2017-Dec-26 12:10 UTC. Time now 2018-Jan-23 10:12 UTC.
Position N 45°11' W 074°19'.
Warning: this ship's position is 27 days out of date.

Length 144 m; draft 7.2 m.

Type: Ship. MMSI: 316006868.

Date/timePositionNaut miles runAvg speedWind from/ knotsBaromVisibWave heightAir tempDewpointWater temp
2017-Dec-26 12:10N 45°11' W 074°19'210.6
2017-Dec-26 12:00N 45°12' W 074°18'3 5.6
2017-Dec-26 11:29N 45°14' W 074°14'0 0.0
2017-Dec-26 10:59N 45°14' W 074°14'0 0.0
2017-Dec-26 10:29N 45°14' W 074°14'0 0.0
2017-Dec-26 09:59N 45°14' W 074°14'0 0.0
2017-Dec-26 09:29N 45°14' W 074°14'0 0.0
2017-Dec-26 08:59N 45°14' W 074°14'0 0.0
2017-Dec-26 08:29N 45°14' W 074°14'0 0.0
2017-Dec-26 07:59N 45°14' W 074°14'0 0.0
2017-Dec-26 07:29N 45°14' W 074°14'0 0.0
2017-Dec-26 06:59N 45°14' W 074°14'0 0.0
2017-Dec-26 06:29N 45°14' W 074°14'0 0.0
2017-Dec-26 05:53N 45°14' W 074°14'0 0.0
2017-Dec-26 05:17N 45°14' W 074°14'0 0.0
2017-Dec-26 04:59N 45°14' W 074°14'0 0.0
2017-Dec-26 04:29N 45°14' W 074°14'0 0.0
2017-Dec-26 03:53N 45°14' W 074°14'0 0.0
2017-Dec-26 03:29N 45°14' W 074°14'0 0.0
2017-Dec-26 02:59N 45°14' W 074°14'0 0.0
2017-Dec-25 21:53N 45°14' W 074°14'0 0.0
2017-Dec-25 21:26N 45°14' W 074°14'0 0.2
2017-Dec-25 21:00N 45°14' W 074°14'3 5.6
2017-Dec-25 20:30N 45°14' W 074°10'4 8.8
2017-Dec-25 20:00N 45°13' W 074°04'4 8.5
2017-Dec-25 19:30N 45°15' W 073°59'4 7.6
2017-Dec-25 19:01N 45°18' W 073°56'0 0.2
2017-Dec-25 18:31N 45°18' W 073°56'1 1.4
2017-Dec-25 18:01N 45°19' W 073°55'0 0.3
2017-Dec-25 17:30N 45°19' W 073°55'1 1.9
2017-Dec-25 17:00N 45°20' W 073°55'1 1.5
2017-Dec-25 16:30N 45°20' W 073°54'0 0.2
2017-Dec-25 16:00N 45°20' W 073°54'0 0.1
2017-Dec-25 15:30N 45°20' W 073°54'0 0.1
2017-Dec-25 15:00N 45°20' W 073°54'0 0.0
2017-Dec-25 14:30N 45°20' W 073°54'0 0.0
2017-Dec-25 13:59N 45°20' W 073°54'0 0.0
2017-Dec-25 13:29N 45°20' W 073°54'0 0.1
2017-Dec-25 12:59N 45°20' W 073°54'0 0.1
2017-Dec-25 12:29N 45°20' W 073°54'0 0.1
2017-Dec-25 11:59N 45°20' W 073°54'0 0.0
2017-Dec-25 11:29N 45°20' W 073°54'0 0.1
2017-Dec-25 10:59N 45°20' W 073°54'0 0.1
2017-Dec-25 10:29N 45°20' W 073°54'0 0.0
2017-Dec-25 09:59N 45°20' W 073°54'0 0.0
2017-Dec-25 09:29N 45°20' W 073°54'0 0.0
2017-Dec-25 08:59N 45°20' W 073°54'0 0.0
2017-Dec-25 08:29N 45°20' W 073°54'0 0.0
2017-Dec-25 07:59N 45°20' W 073°54'0 0.0
2017-Dec-25 07:29N 45°20' W 073°54'0 0.0
2017-Dec-25 06:59N 45°20' W 073°54'0 0.1
2017-Dec-25 06:29N 45°20' W 073°54'0 0.0
2017-Dec-25 05:59N 45°20' W 073°54'0 0.1
2017-Dec-25 05:29N 45°20' W 073°54'0 0.0
2017-Dec-25 04:59N 45°20' W 073°54'0 0.1
2017-Dec-25 04:29N 45°20' W 073°54'0 0.1
2017-Dec-25 03:59N 45°20' W 073°54'0 0.1
2017-Dec-25 03:29N 45°20' W 073°54'0 0.3
2017-Dec-25 02:59N 45°20' W 073°54'0 0.2
2017-Dec-25 02:29N 45°20' W 073°54'0 0.0
2017-Dec-25 01:59N 45°20' W 073°54'0 0.0
2017-Dec-25 01:29N 45°20' W 073°54'0 0.2
2017-Dec-25 00:59N 45°20' W 073°54'0 0.3
2017-Dec-25 00:29N 45°20' W 073°53'0 0.1
2017-Dec-24 23:59N 45°20' W 073°54'0 0.0
2017-Dec-24 23:29N 45°20' W 073°54'0 0.1
2017-Dec-24 23:00N 45°20' W 073°54'1 2.6
2017-Dec-24 22:31N 45°19' W 073°55'0 0.3
2017-Dec-24 22:01N 45°19' W 073°55'1 1.3
2017-Dec-24 21:31N 45°18' W 073°56'0 0.3
2017-Dec-24 21:00N 45°18' W 073°56'2 3.6
2017-Dec-24 20:30N 45°17' W 073°57'5 9.1
2017-Dec-24 20:01N 45°14' W 074°02'510.1
2017-Dec-24 19:30N 45°14' W 074°09'  

Dump ship's entire track history